sensor_id;sensor_type;location;lat;lon;timestamp;P1;durP1;ratioP1;P2;durP2;ratioP2
73599;SDS011;61877;48.246;9.220;2023-04-03T00:00:36;14.00;;;6.30;;
73599;SDS011;61877;48.246;9.220;2023-04-03T00:03:02;13.03;;;6.33;;
73599;SDS011;61877;48.246;9.220;2023-04-03T00:05:27;11.53;;;5.73;;
73599;SDS011;61877;48.246;9.220;2023-04-03T00:07:54;12.88;;;6.35;;
73599;SDS011;61877;48.246;9.220;2023-04-03T00:10:20;11.17;;;5.93;;
73599;SDS011;61877;48.246;9.220;2023-04-03T00:12:45;11.90;;;6.32;;
73599;SDS011;61877;48.246;9.220;2023-04-03T00:15:11;11.77;;;6.60;;
73599;SDS011;61877;48.246;9.220;2023-04-03T00:17:37;11.85;;;6.43;;
73599;SDS011;61877;48.246;9.220;2023-04-03T00:20:02;11.80;;;6.37;;
73599;SDS011;61877;48.246;9.220;2023-04-03T00:22:28;11.38;;;6.20;;
73599;SDS011;61877;48.246;9.220;2023-04-03T00:24:55;11.20;;;6.23;;
73599;SDS011;61877;48.246;9.220;2023-04-03T00:27:21;13.18;;;6.00;;
73599;SDS011;61877;48.246;9.220;2023-04-03T00:29:46;12.13;;;6.30;;
73599;SDS011;61877;48.246;9.220;2023-04-03T00:32:12;11.00;;;5.77;;
73599;SDS011;61877;48.246;9.220;2023-04-03T00:34:37;10.77;;;5.83;;
73599;SDS011;61877;48.246;9.220;2023-04-03T00:37:03;11.27;;;6.03;;
73599;SDS011;61877;48.246;9.220;2023-04-03T00:39:28;12.07;;;6.10;;
73599;SDS011;61877;48.246;9.220;2023-04-03T00:41:55;10.57;;;5.80;;
73599;SDS011;61877;48.246;9.220;2023-04-03T00:44:21;12.00;;;6.13;;
73599;SDS011;61877;48.246;9.220;2023-04-03T00:46:47;11.38;;;6.30;;
73599;SDS011;61877;48.246;9.220;2023-04-03T00:49:12;11.50;;;6.27;;
73599;SDS011;61877;48.246;9.220;2023-04-03T00:51:38;12.13;;;5.82;;
73599;SDS011;61877;48.246;9.220;2023-04-03T00:54:04;11.93;;;6.67;;
73599;SDS011;61877;48.246;9.220;2023-04-03T00:56:32;11.00;;;5.72;;
73599;SDS011;61877;48.246;9.220;2023-04-03T00:59:02;12.37;;;6.03;;
73599;SDS011;61877;48.246;9.220;2023-04-03T01:01:31;10.68;;;6.05;;
73599;SDS011;61877;48.246;9.220;2023-04-03T01:03:58;11.73;;;6.30;;
73599;SDS011;61877;48.246;9.220;2023-04-03T01:06:24;11.35;;;6.00;;
73599;SDS011;61877;48.246;9.220;2023-04-03T01:08:53;12.80;;;5.97;;
73599;SDS011;61877;48.246;9.220;2023-04-03T01:11:20;11.77;;;6.18;;
73599;SDS011;61877;48.246;9.220;2023-04-03T01:13:46;12.73;;;6.30;;
73599;SDS011;61877;48.246;9.220;2023-04-03T01:16:13;12.07;;;6.05;;
73599;SDS011;61877;48.246;9.220;2023-04-03T01:18:39;12.23;;;6.20;;
73599;SDS011;61877;48.246;9.220;2023-04-03T01:21:16;12.20;;;6.10;;
73599;SDS011;61877;48.246;9.220;2023-04-03T01:24:09;13.90;;;6.13;;
73599;SDS011;61877;48.246;9.220;2023-04-03T01:26:41;11.85;;;6.38;;
73599;SDS011;61877;48.246;9.220;2023-04-03T01:29:08;11.70;;;6.63;;
73599;SDS011;61877;48.246;9.220;2023-04-03T01:31:44;11.23;;;6.13;;
73599;SDS011;61877;48.246;9.220;2023-04-03T01:34:11;12.77;;;6.65;;
73599;SDS011;61877;48.246;9.220;2023-04-03T01:36:37;12.87;;;6.33;;
73599;SDS011;61877;48.246;9.220;2023-04-03T01:39:02;12.52;;;6.38;;
73599;SDS011;61877;48.246;9.220;2023-04-03T01:41:28;13.03;;;6.23;;
73599;SDS011;61877;48.246;9.220;2023-04-03T01:43:53;12.88;;;6.78;;
73599;SDS011;61877;48.246;9.220;2023-04-03T01:46:19;13.10;;;6.90;;
73599;SDS011;61877;48.246;9.220;2023-04-03T01:48:46;13.45;;;7.10;;
73599;SDS011;61877;48.246;9.220;2023-04-03T01:51:12;12.23;;;6.80;;
73599;SDS011;61877;48.246;9.220;2023-04-03T01:53:38;12.27;;;6.23;;
73599;SDS011;61877;48.246;9.220;2023-04-03T01:56:04;13.50;;;6.57;;
73599;SDS011;61877;48.246;9.220;2023-04-03T01:58:30;12.70;;;6.65;;
73599;SDS011;61877;48.246;9.220;2023-04-03T02:00:55;13.13;;;6.80;;
73599;SDS011;61877;48.246;9.220;2023-04-03T02:03:21;13.70;;;6.93;;
73599;SDS011;61877;48.246;9.220;2023-04-03T02:05:48;13.17;;;6.97;;
73599;SDS011;61877;48.246;9.220;2023-04-03T02:08:14;13.45;;;6.85;;
73599;SDS011;61877;48.246;9.220;2023-04-03T02:10:39;13.37;;;6.60;;
73599;SDS011;61877;48.246;9.220;2023-04-03T02:13:05;12.65;;;6.68;;
73599;SDS011;61877;48.246;9.220;2023-04-03T02:15:30;12.20;;;6.47;;
73599;SDS011;61877;48.246;9.220;2023-04-03T02:17:55;12.67;;;7.00;;
73599;SDS011;61877;48.246;9.220;2023-04-03T02:20:21;13.37;;;7.03;;
73599;SDS011;61877;48.246;9.220;2023-04-03T02:22:48;13.50;;;7.25;;
73599;SDS011;61877;48.246;9.220;2023-04-03T02:25:14;13.63;;;7.00;;
73599;SDS011;61877;48.246;9.220;2023-04-03T02:27:39;13.25;;;7.30;;
73599;SDS011;61877;48.246;9.220;2023-04-03T02:30:05;14.70;;;7.40;;
73599;SDS011;61877;48.246;9.220;2023-04-03T02:32:31;13.48;;;7.47;;
73599;SDS011;61877;48.246;9.220;2023-04-03T02:34:56;14.27;;;7.30;;
73599;SDS011;61877;48.246;9.220;2023-04-03T02:37:22;13.43;;;7.63;;
73599;SDS011;61877;48.246;9.220;2023-04-03T02:39:49;14.17;;;7.53;;
73599;SDS011;61877;48.246;9.220;2023-04-03T02:42:15;13.57;;;7.28;;
73599;SDS011;61877;48.246;9.220;2023-04-03T02:44:40;14.93;;;7.40;;
73599;SDS011;61877;48.246;9.220;2023-04-03T02:47:05;13.53;;;7.33;;
73599;SDS011;61877;48.246;9.220;2023-04-03T02:49:31;13.60;;;7.15;;
73599;SDS011;61877;48.246;9.220;2023-04-03T02:51:57;13.73;;;7.53;;
73599;SDS011;61877;48.246;9.220;2023-04-03T02:54:22;13.50;;;7.10;;
73599;SDS011;61877;48.246;9.220;2023-04-03T02:56:49;14.45;;;7.68;;
73599;SDS011;61877;48.246;9.220;2023-04-03T02:59:14;14.50;;;7.33;;
73599;SDS011;61877;48.246;9.220;2023-04-03T03:01:40;13.32;;;7.30;;
73599;SDS011;61877;48.246;9.220;2023-04-03T03:04:05;14.10;;;7.53;;
73599;SDS011;61877;48.246;9.220;2023-04-03T03:06:31;14.13;;;7.40;;
73599;SDS011;61877;48.246;9.220;2023-04-03T03:08:56;13.95;;;7.25;;
73599;SDS011;61877;48.246;9.220;2023-04-03T03:11:22;16.67;;;7.00;;
73599;SDS011;61877;48.246;9.220;2023-04-03T03:13:48;14.80;;;7.70;;
73599;SDS011;61877;48.246;9.220;2023-04-03T03:16:14;13.20;;;7.00;;
73599;SDS011;61877;48.246;9.220;2023-04-03T03:18:39;13.53;;;6.67;;
73599;SDS011;61877;48.246;9.220;2023-04-03T03:21:05;13.32;;;7.22;;
73599;SDS011;61877;48.246;9.220;2023-04-03T03:23:30;13.87;;;7.10;;
73599;SDS011;61877;48.246;9.220;2023-04-03T03:25:57;13.48;;;7.00;;
73599;SDS011;61877;48.246;9.220;2023-04-03T03:28:24;12.50;;;7.10;;
73599;SDS011;61877;48.246;9.220;2023-04-03T03:30:51;13.65;;;6.90;;
73599;SDS011;61877;48.246;9.220;2023-04-03T03:33:16;12.80;;;6.73;;
73599;SDS011;61877;48.246;9.220;2023-04-03T03:35:42;13.80;;;6.78;;
73599;SDS011;61877;48.246;9.220;2023-04-03T03:38:07;12.90;;;6.10;;
73599;SDS011;61877;48.246;9.220;2023-04-03T03:40:33;12.07;;;6.40;;
73599;SDS011;61877;48.246;9.220;2023-04-03T03:42:58;10.88;;;5.90;;
73599;SDS011;61877;48.246;9.220;2023-04-03T03:45:24;11.13;;;6.17;;
73599;SDS011;61877;48.246;9.220;2023-04-03T03:47:50;10.87;;;5.67;;
73599;SDS011;61877;48.246;9.220;2023-04-03T03:50:16;10.85;;;5.40;;
73599;SDS011;61877;48.246;9.220;2023-04-03T03:52:41;10.37;;;5.50;;
73599;SDS011;61877;48.246;9.220;2023-04-03T03:55:07;10.25;;;5.47;;
73599;SDS011;61877;48.246;9.220;2023-04-03T03:57:33;10.57;;;5.47;;
73599;SDS011;61877;48.246;9.220;2023-04-03T03:59:58;10.83;;;5.47;;
73599;SDS011;61877;48.246;9.220;2023-04-03T04:02:23;10.57;;;5.60;;
73599;SDS011;61877;48.246;9.220;2023-04-03T04:04:50;9.73;;;5.10;;
73599;SDS011;61877;48.246;9.220;2023-04-03T04:07:16;9.77;;;5.22;;
73599;SDS011;61877;48.246;9.220;2023-04-03T04:09:41;9.77;;;5.43;;
73599;SDS011;61877;48.246;9.220;2023-04-03T04:12:06;11.17;;;5.63;;
73599;SDS011;61877;48.246;9.220;2023-04-03T04:14:32;10.37;;;5.47;;
73599;SDS011;61877;48.246;9.220;2023-04-03T04:16:57;9.77;;;5.13;;
73599;SDS011;61877;48.246;9.220;2023-04-03T04:19:23;10.57;;;5.67;;
73599;SDS011;61877;48.246;9.220;2023-04-03T04:21:50;11.40;;;6.03;;
73599;SDS011;61877;48.246;9.220;2023-04-03T04:24:15;11.13;;;5.75;;
73599;SDS011;61877;48.246;9.220;2023-04-03T04:26:41;10.87;;;5.93;;
73599;SDS011;61877;48.246;9.220;2023-04-03T04:29:08;12.43;;;5.78;;
73599;SDS011;61877;48.246;9.220;2023-04-03T04:31:33;10.13;;;5.47;;
73599;SDS011;61877;48.246;9.220;2023-04-03T04:33:59;10.93;;;5.60;;
73599;SDS011;61877;48.246;9.220;2023-04-03T04:36:24;11.63;;;5.80;;
73599;SDS011;61877;48.246;9.220;2023-04-03T04:38:51;11.73;;;5.70;;
73599;SDS011;61877;48.246;9.220;2023-04-03T04:41:16;11.15;;;6.03;;
73599;SDS011;61877;48.246;9.220;2023-04-03T04:43:42;11.30;;;5.93;;
73599;SDS011;61877;48.246;9.220;2023-04-03T04:46:08;12.18;;;5.97;;
73599;SDS011;61877;48.246;9.220;2023-04-03T04:48:35;11.27;;;5.70;;
73599;SDS011;61877;48.246;9.220;2023-04-03T04:51:00;11.10;;;5.72;;
73599;SDS011;61877;48.246;9.220;2023-04-03T04:53:26;9.93;;;5.40;;
73599;SDS011;61877;48.246;9.220;2023-04-03T04:55:53;11.38;;;5.85;;
73599;SDS011;61877;48.246;9.220;2023-04-03T04:58:18;11.87;;;5.83;;
73599;SDS011;61877;48.246;9.220;2023-04-03T05:00:44;12.18;;;6.45;;
73599;SDS011;61877;48.246;9.220;2023-04-03T05:03:09;11.23;;;5.80;;
73599;SDS011;61877;48.246;9.220;2023-04-03T05:05:35;10.43;;;5.33;;
73599;SDS011;61877;48.246;9.220;2023-04-03T05:08:00;11.05;;;5.70;;
73599;SDS011;61877;48.246;9.220;2023-04-03T05:10:25;10.47;;;5.93;;
73599;SDS011;61877;48.246;9.220;2023-04-03T05:12:52;12.53;;;6.10;;
73599;SDS011;61877;48.246;9.220;2023-04-03T05:15:18;12.07;;;5.82;;
73599;SDS011;61877;48.246;9.220;2023-04-03T05:17:43;10.47;;;5.60;;
73599;SDS011;61877;48.246;9.220;2023-04-03T05:20:09;9.90;;;5.50;;
73599;SDS011;61877;48.246;9.220;2023-04-03T05:22:35;10.27;;;5.22;;
73599;SDS011;61877;48.246;9.220;2023-04-03T05:25:00;10.00;;;5.40;;
73599;SDS011;61877;48.246;9.220;2023-04-03T05:27:26;9.80;;;5.15;;
73599;SDS011;61877;48.246;9.220;2023-04-03T05:29:53;9.70;;;4.97;;
73599;SDS011;61877;48.246;9.220;2023-04-03T05:32:19;10.40;;;5.10;;
73599;SDS011;61877;48.246;9.220;2023-04-03T05:34:44;9.90;;;4.87;;
73599;SDS011;61877;48.246;9.220;2023-04-03T05:37:10;9.97;;;4.87;;
73599;SDS011;61877;48.246;9.220;2023-04-03T05:39:35;8.95;;;4.85;;
73599;SDS011;61877;48.246;9.220;2023-04-03T05:42:01;8.90;;;4.90;;
73599;SDS011;61877;48.246;9.220;2023-04-03T05:44:26;9.53;;;4.97;;
73599;SDS011;61877;48.246;9.220;2023-04-03T05:46:53;10.45;;;5.00;;
73599;SDS011;61877;48.246;9.220;2023-04-03T05:49:18;8.97;;;4.50;;
73599;SDS011;61877;48.246;9.220;2023-04-03T05:51:44;9.30;;;4.90;;
73599;SDS011;61877;48.246;9.220;2023-04-03T05:54:11;9.70;;;5.03;;
73599;SDS011;61877;48.246;9.220;2023-04-03T05:56:40;9.60;;;4.93;;
73599;SDS011;61877;48.246;9.220;2023-04-03T05:59:06;9.80;;;4.67;;
73599;SDS011;61877;48.246;9.220;2023-04-03T06:01:48;9.30;;;4.20;;
73599;SDS011;61877;48.246;9.220;2023-04-03T06:04:30;8.40;;;4.70;;
73599;SDS011;61877;48.246;9.220;2023-04-03T06:06:59;8.38;;;4.15;;
73599;SDS011;61877;48.246;9.220;2023-04-03T06:09:25;8.90;;;4.53;;
73599;SDS011;61877;48.246;9.220;2023-04-03T06:12:41;8.38;;;4.30;;
73599;SDS011;61877;48.246;9.220;2023-04-03T06:15:09;8.93;;;4.43;;
73599;SDS011;61877;48.246;9.220;2023-04-03T06:17:34;8.63;;;4.30;;
73599;SDS011;61877;48.246;9.220;2023-04-03T06:20:10;8.55;;;4.68;;
73599;SDS011;61877;48.246;9.220;2023-04-03T06:22:36;8.27;;;4.25;;
73599;SDS011;61877;48.246;9.220;2023-04-03T06:25:12;8.23;;;4.43;;
73599;SDS011;61877;48.246;9.220;2023-04-03T06:27:38;8.00;;;4.30;;
73599;SDS011;61877;48.246;9.220;2023-04-03T06:30:04;8.75;;;4.47;;
73599;SDS011;61877;48.246;9.220;2023-04-03T06:32:30;8.13;;;4.30;;
73599;SDS011;61877;48.246;9.220;2023-04-03T06:34:55;7.47;;;3.93;;
73599;SDS011;61877;48.246;9.220;2023-04-03T06:37:22;8.00;;;4.40;;
73599;SDS011;61877;48.246;9.220;2023-04-03T06:39:48;8.70;;;4.60;;
73599;SDS011;61877;48.246;9.220;2023-04-03T06:42:13;8.80;;;4.23;;
73599;SDS011;61877;48.246;9.220;2023-04-03T06:44:39;7.70;;;4.20;;
73599;SDS011;61877;48.246;9.220;2023-04-03T06:47:04;8.87;;;4.17;;
73599;SDS011;61877;48.246;9.220;2023-04-03T06:49:30;7.47;;;3.60;;
73599;SDS011;61877;48.246;9.220;2023-04-03T06:51:55;7.53;;;3.50;;
73599;SDS011;61877;48.246;9.220;2023-04-03T06:54:22;8.13;;;3.90;;
73599;SDS011;61877;48.246;9.220;2023-04-03T06:56:48;8.40;;;3.85;;
73599;SDS011;61877;48.246;9.220;2023-04-03T06:59:14;7.23;;;3.87;;
73599;SDS011;61877;48.246;9.220;2023-04-03T07:01:39;7.77;;;3.70;;
73599;SDS011;61877;48.246;9.220;2023-04-03T07:04:05;8.60;;;4.20;;
73599;SDS011;61877;48.246;9.220;2023-04-03T07:06:30;7.97;;;4.03;;
73599;SDS011;61877;48.246;9.220;2023-04-03T07:08:56;8.13;;;3.90;;
73599;SDS011;61877;48.246;9.220;2023-04-03T07:11:23;7.73;;;3.83;;
73599;SDS011;61877;48.246;9.220;2023-04-03T07:13:48;8.07;;;4.07;;
73599;SDS011;61877;48.246;9.220;2023-04-03T07:16:14;8.85;;;4.30;;
73599;SDS011;61877;48.246;9.220;2023-04-03T07:18:39;8.47;;;4.23;;
73599;SDS011;61877;48.246;9.220;2023-04-03T07:21:05;9.10;;;4.23;;
73599;SDS011;61877;48.246;9.220;2023-04-03T07:23:30;7.97;;;4.10;;
73599;SDS011;61877;48.246;9.220;2023-04-03T07:25:56;8.00;;;4.20;;
73599;SDS011;61877;48.246;9.220;2023-04-03T07:28:23;8.27;;;4.30;;
73599;SDS011;61877;48.246;9.220;2023-04-03T07:30:49;8.70;;;4.28;;
73599;SDS011;61877;48.246;9.220;2023-04-03T07:33:16;9.13;;;4.43;;
73599;SDS011;61877;48.246;9.220;2023-04-03T07:35:46;8.45;;;4.40;;
73599;SDS011;61877;48.246;9.220;2023-04-03T07:38:11;9.02;;;4.47;;
73599;SDS011;61877;48.246;9.220;2023-04-03T07:40:37;9.40;;;4.47;;
73599;SDS011;61877;48.246;9.220;2023-04-03T07:43:04;8.50;;;4.28;;
73599;SDS011;61877;48.246;9.220;2023-04-03T07:45:31;9.57;;;4.57;;
73599;SDS011;61877;48.246;9.220;2023-04-03T07:47:59;8.43;;;4.18;;
73599;SDS011;61877;48.246;9.220;2023-04-03T07:50:25;8.67;;;4.47;;
73599;SDS011;61877;48.246;9.220;2023-04-03T07:52:50;8.30;;;4.07;;
73599;SDS011;61877;48.246;9.220;2023-04-03T07:55:16;8.60;;;4.60;;
73599;SDS011;61877;48.246;9.220;2023-04-03T07:57:41;8.32;;;4.00;;
73599;SDS011;61877;48.246;9.220;2023-04-03T08:00:07;9.07;;;4.47;;
73599;SDS011;61877;48.246;9.220;2023-04-03T08:02:35;8.48;;;4.30;;
73599;SDS011;61877;48.246;9.220;2023-04-03T08:05:00;8.23;;;4.20;;
73599;SDS011;61877;48.246;9.220;2023-04-03T08:07:25;8.70;;;4.57;;
73599;SDS011;61877;48.246;9.220;2023-04-03T08:09:51;8.43;;;4.40;;
73599;SDS011;61877;48.246;9.220;2023-04-03T08:12:17;8.67;;;4.40;;
73599;SDS011;61877;48.246;9.220;2023-04-03T08:14:42;8.40;;;4.28;;
73599;SDS011;61877;48.246;9.220;2023-04-03T08:17:08;7.77;;;4.00;;
73599;SDS011;61877;48.246;9.220;2023-04-03T08:19:35;8.40;;;4.30;;
73599;SDS011;61877;48.246;9.220;2023-04-03T08:22:00;9.60;;;4.45;;
73599;SDS011;61877;48.246;9.220;2023-04-03T08:24:26;8.40;;;4.40;;
73599;SDS011;61877;48.246;9.220;2023-04-03T08:26:51;10.10;;;4.27;;
73599;SDS011;61877;48.246;9.220;2023-04-03T08:29:19;8.60;;;4.30;;
73599;SDS011;61877;48.246;9.220;2023-04-03T08:31:44;8.43;;;4.60;;
73599;SDS011;61877;48.246;9.220;2023-04-03T08:34:10;9.57;;;4.53;;
73599;SDS011;61877;48.246;9.220;2023-04-03T08:36:36;8.90;;;4.90;;
73599;SDS011;61877;48.246;9.220;2023-04-03T08:39:02;8.40;;;4.50;;
73599;SDS011;61877;48.246;9.220;2023-04-03T08:41:29;9.25;;;4.55;;
73599;SDS011;61877;48.246;9.220;2023-04-03T08:44:00;9.53;;;5.03;;
73599;SDS011;61877;48.246;9.220;2023-04-03T08:46:38;10.45;;;5.00;;
73599;SDS011;61877;48.246;9.220;2023-04-03T08:49:14;10.30;;;5.45;;
73599;SDS011;61877;48.246;9.220;2023-04-03T08:51:48;10.63;;;5.18;;
73599;SDS011;61877;48.246;9.220;2023-04-03T08:54:18;9.98;;;5.05;;
73599;SDS011;61877;48.246;9.220;2023-04-03T08:56:49;9.30;;;5.30;;
73599;SDS011;61877;48.246;9.220;2023-04-03T08:59:16;10.60;;;5.00;;
73599;SDS011;61877;48.246;9.220;2023-04-03T09:01:49;11.40;;;5.13;;
73599;SDS011;61877;48.246;9.220;2023-04-03T09:04:15;9.18;;;4.65;;
73599;SDS011;61877;48.246;9.220;2023-04-03T09:06:41;9.60;;;5.00;;
73599;SDS011;61877;48.246;9.220;2023-04-03T09:09:14;8.70;;;4.50;;
73599;SDS011;61877;48.246;9.220;2023-04-03T09:11:49;10.65;;;5.18;;
73599;SDS011;61877;48.246;9.220;2023-04-03T09:14:21;9.40;;;4.70;;
73599;SDS011;61877;48.246;9.220;2023-04-03T09:16:55;9.80;;;4.35;;
73599;SDS011;61877;48.246;9.220;2023-04-03T09:19:34;8.93;;;4.80;;
73599;SDS011;61877;48.246;9.220;2023-04-03T09:22:09;10.23;;;4.90;;
73599;SDS011;61877;48.246;9.220;2023-04-03T09:24:42;8.90;;;4.50;;
73599;SDS011;61877;48.246;9.220;2023-04-03T09:27:11;8.40;;;4.57;;
73599;SDS011;61877;48.246;9.220;2023-04-03T09:29:38;10.00;;;4.80;;
73599;SDS011;61877;48.246;9.220;2023-04-03T09:32:11;8.68;;;4.78;;
73599;SDS011;61877;48.246;9.220;2023-04-03T09:34:46;8.77;;;4.80;;
73599;SDS011;61877;48.246;9.220;2023-04-03T09:37:32;8.90;;;4.57;;
73599;SDS011;61877;48.246;9.220;2023-04-03T09:40:01;9.10;;;4.40;;
73599;SDS011;61877;48.246;9.220;2023-04-03T09:42:27;9.05;;;4.78;;
73599;SDS011;61877;48.246;9.220;2023-04-03T09:44:55;9.13;;;4.55;;
73599;SDS011;61877;48.246;9.220;2023-04-03T09:47:24;7.97;;;4.47;;
73599;SDS011;61877;48.246;9.220;2023-04-03T09:49:51;8.98;;;4.82;;
73599;SDS011;61877;48.246;9.220;2023-04-03T09:52:42;8.75;;;4.40;;
73599;SDS011;61877;48.246;9.220;2023-04-03T09:55:14;8.48;;;4.28;;
73599;SDS011;61877;48.246;9.220;2023-04-03T09:57:41;9.18;;;4.10;;
73599;SDS011;61877;48.246;9.220;2023-04-03T10:00:10;8.93;;;4.30;;
73599;SDS011;61877;48.246;9.220;2023-04-03T10:02:45;8.57;;;4.45;;
73599;SDS011;61877;48.246;9.220;2023-04-03T10:05:27;8.48;;;4.07;;
73599;SDS011;61877;48.246;9.220;2023-04-03T10:08:20;8.27;;;3.80;;
73599;SDS011;61877;48.246;9.220;2023-04-03T10:11:05;9.23;;;4.00;;
73599;SDS011;61877;48.246;9.220;2023-04-03T10:13:32;8.48;;;4.20;;
73599;SDS011;61877;48.246;9.220;2023-04-03T10:15:59;9.07;;;4.60;;
73599;SDS011;61877;48.246;9.220;2023-04-03T10:18:29;9.18;;;4.55;;
73599;SDS011;61877;48.246;9.220;2023-04-03T10:21:04;8.80;;;4.35;;
73599;SDS011;61877;48.246;9.220;2023-04-03T10:23:37;8.75;;;4.50;;
73599;SDS011;61877;48.246;9.220;2023-04-03T10:26:12;7.70;;;3.90;;
73599;SDS011;61877;48.246;9.220;2023-04-03T10:28:52;8.70;;;4.50;;
73599;SDS011;61877;48.246;9.220;2023-04-03T10:31:23;9.15;;;4.20;;
73599;SDS011;61877;48.246;9.220;2023-04-03T10:33:56;8.82;;;3.83;;
73599;SDS011;61877;48.246;9.220;2023-04-03T10:36:33;8.35;;;4.32;;
73599;SDS011;61877;48.246;9.220;2023-04-03T10:39:05;7.53;;;3.90;;
73599;SDS011;61877;48.246;9.220;2023-04-03T10:41:45;7.95;;;4.22;;
73599;SDS011;61877;48.246;9.220;2023-04-03T10:44:20;7.80;;;3.80;;
73599;SDS011;61877;48.246;9.220;2023-04-03T10:46:55;8.30;;;4.03;;
73599;SDS011;61877;48.246;9.220;2023-04-03T10:49:33;8.13;;;4.25;;
73599;SDS011;61877;48.246;9.220;2023-04-03T10:52:07;8.43;;;4.10;;
73599;SDS011;61877;48.246;9.220;2023-04-03T10:54:39;10.23;;;5.57;;
73599;SDS011;61877;48.246;9.220;2023-04-03T10:57:10;9.02;;;4.75;;
73599;SDS011;61877;48.246;9.220;2023-04-03T10:59:36;8.75;;;4.15;;
73599;SDS011;61877;48.246;9.220;2023-04-03T11:02:07;8.25;;;4.40;;
73599;SDS011;61877;48.246;9.220;2023-04-03T11:04:41;9.30;;;4.40;;
73599;SDS011;61877;48.246;9.220;2023-04-03T11:07:14;7.93;;;4.10;;
73599;SDS011;61877;48.246;9.220;2023-04-03T11:09:44;8.32;;;4.40;;
73599;SDS011;61877;48.246;9.220;2023-04-03T11:12:14;8.05;;;4.15;;
73599;SDS011;61877;48.246;9.220;2023-04-03T11:14:43;8.35;;;4.20;;
73599;SDS011;61877;48.246;9.220;2023-04-03T11:17:15;8.13;;;4.10;;
73599;SDS011;61877;48.246;9.220;2023-04-03T11:19:51;9.27;;;4.55;;
73599;SDS011;61877;48.246;9.220;2023-04-03T11:22:22;8.70;;;4.20;;
73599;SDS011;61877;48.246;9.220;2023-04-03T11:24:53;9.23;;;4.20;;
73599;SDS011;61877;48.246;9.220;2023-04-03T11:27:25;8.05;;;4.13;;
73599;SDS011;61877;48.246;9.220;2023-04-03T11:29:55;7.67;;;4.10;;
73599;SDS011;61877;48.246;9.220;2023-04-03T11:35:22;8.05;;;3.97;;
73599;SDS011;61877;48.246;9.220;2023-04-03T11:37:50;8.77;;;4.30;;
73599;SDS011;61877;48.246;9.220;2023-04-03T11:40:20;7.72;;;4.10;;
73599;SDS011;61877;48.246;9.220;2023-04-03T11:42:51;8.40;;;4.10;;
73599;SDS011;61877;48.246;9.220;2023-04-03T11:45:27;7.53;;;4.10;;
73599;SDS011;61877;48.246;9.220;2023-04-03T11:48:00;8.05;;;4.22;;
73599;SDS011;61877;48.246;9.220;2023-04-03T11:50:30;9.35;;;4.47;;
73599;SDS011;61877;48.246;9.220;2023-04-03T11:53:11;8.73;;;4.20;;
73599;SDS011;61877;48.246;9.220;2023-04-03T11:55:56;8.37;;;4.10;;
73599;SDS011;61877;48.246;9.220;2023-04-03T11:58:31;9.60;;;4.22;;
73599;SDS011;61877;48.246;9.220;2023-04-03T12:01:03;9.48;;;4.32;;
73599;SDS011;61877;48.246;9.220;2023-04-03T12:03:31;9.50;;;4.65;;
73599;SDS011;61877;48.246;9.220;2023-04-03T12:09:23;8.73;;;4.80;;
73599;SDS011;61877;48.246;9.220;2023-04-03T12:12:24;9.38;;;5.00;;
73599;SDS011;61877;48.246;9.220;2023-04-03T12:14:57;8.82;;;4.90;;
73599;SDS011;61877;48.246;9.220;2023-04-03T12:17:43;10.65;;;5.40;;
73599;SDS011;61877;48.246;9.220;2023-04-03T12:23:07;8.93;;;4.90;;
73599;SDS011;61877;48.246;9.220;2023-04-03T12:25:47;8.20;;;4.70;;
73599;SDS011;61877;48.246;9.220;2023-04-03T12:28:14;8.80;;;4.57;;
73599;SDS011;61877;48.246;9.220;2023-04-03T12:30:41;9.40;;;4.43;;
73599;SDS011;61877;48.246;9.220;2023-04-03T12:33:19;8.60;;;4.47;;
73599;SDS011;61877;48.246;9.220;2023-04-03T12:35:56;9.90;;;4.85;;
73599;SDS011;61877;48.246;9.220;2023-04-03T12:41:33;10.70;;;4.43;;
73599;SDS011;61877;48.246;9.220;2023-04-03T12:44:06;8.82;;;4.22;;
73599;SDS011;61877;48.246;9.220;2023-04-03T12:46:53;8.37;;;3.93;;
73599;SDS011;61877;48.246;9.220;2023-04-03T12:49:24;8.13;;;4.20;;
73599;SDS011;61877;48.246;9.220;2023-04-03T12:51:57;8.75;;;4.40;;
73599;SDS011;61877;48.246;9.220;2023-04-03T12:54:25;9.40;;;4.35;;
73599;SDS011;61877;48.246;9.220;2023-04-03T12:57:08;9.03;;;4.40;;
73599;SDS011;61877;48.246;9.220;2023-04-03T12:59:34;8.55;;;4.10;;
73599;SDS011;61877;48.246;9.220;2023-04-03T13:02:02;8.53;;;4.40;;
73599;SDS011;61877;48.246;9.220;2023-04-03T13:04:28;8.38;;;4.38;;
73599;SDS011;61877;48.246;9.220;2023-04-03T13:06:56;8.07;;;4.40;;
73599;SDS011;61877;48.246;9.220;2023-04-03T13:09:23;8.00;;;4.22;;
73599;SDS011;61877;48.246;9.220;2023-04-03T13:11:50;8.20;;;4.30;;
73599;SDS011;61877;48.246;9.220;2023-04-03T13:14:22;7.57;;;3.87;;
73599;SDS011;61877;48.246;9.220;2023-04-03T13:16:55;8.02;;;4.00;;
73599;SDS011;61877;48.246;9.220;2023-04-03T13:19:24;7.63;;;4.00;;
73599;SDS011;61877;48.246;9.220;2023-04-03T13:21:52;7.95;;;3.88;;
73599;SDS011;61877;48.246;9.220;2023-04-03T13:24:24;8.00;;;3.83;;
73599;SDS011;61877;48.246;9.220;2023-04-03T13:26:50;7.90;;;3.90;;
73599;SDS011;61877;48.246;9.220;2023-04-03T13:29:19;7.95;;;4.00;;
73599;SDS011;61877;48.246;9.220;2023-04-03T13:31:47;7.93;;;4.13;;
73599;SDS011;61877;48.246;9.220;2023-04-03T13:34:19;7.97;;;3.78;;
73599;SDS011;61877;48.246;9.220;2023-04-03T13:36:54;7.55;;;3.60;;
73599;SDS011;61877;48.246;9.220;2023-04-03T13:39:22;9.07;;;4.10;;
73599;SDS011;61877;48.246;9.220;2023-04-03T13:41:50;8.82;;;3.65;;
73599;SDS011;61877;48.246;9.220;2023-04-03T13:44:30;8.63;;;4.25;;
73599;SDS011;61877;48.246;9.220;2023-04-03T13:46:59;8.77;;;4.03;;
73599;SDS011;61877;48.246;9.220;2023-04-03T13:51:55;7.80;;;3.87;;
73599;SDS011;61877;48.246;9.220;2023-04-03T13:54:22;8.98;;;4.18;;
73599;SDS011;61877;48.246;9.220;2023-04-03T13:56:52;7.85;;;4.15;;
73599;SDS011;61877;48.246;9.220;2023-04-03T13:59:21;8.48;;;4.35;;
73599;SDS011;61877;48.246;9.220;2023-04-03T14:01:52;8.05;;;4.07;;
73599;SDS011;61877;48.246;9.220;2023-04-03T14:07:46;9.02;;;4.70;;
73599;SDS011;61877;48.246;9.220;2023-04-03T14:10:11;8.40;;;4.43;;
73599;SDS011;61877;48.246;9.220;2023-04-03T14:12:37;9.17;;;4.50;;
73599;SDS011;61877;48.246;9.220;2023-04-03T14:15:06;9.55;;;4.22;;
73599;SDS011;61877;48.246;9.220;2023-04-03T14:17:55;8.60;;;4.40;;
73599;SDS011;61877;48.246;9.220;2023-04-03T14:20:22;8.43;;;4.20;;
73599;SDS011;61877;48.246;9.220;2023-04-03T14:22:51;10.68;;;4.40;;
73599;SDS011;61877;48.246;9.220;2023-04-03T14:25:16;8.55;;;4.38;;
73599;SDS011;61877;48.246;9.220;2023-04-03T14:27:44;8.97;;;4.50;;
73599;SDS011;61877;48.246;9.220;2023-04-03T14:30:14;9.07;;;4.70;;
73599;SDS011;61877;48.246;9.220;2023-04-03T14:32:41;9.13;;;4.70;;
73599;SDS011;61877;48.246;9.220;2023-04-03T14:35:07;9.37;;;4.70;;
73599;SDS011;61877;48.246;9.220;2023-04-03T14:37:32;8.65;;;4.30;;
73599;SDS011;61877;48.246;9.220;2023-04-03T14:40:00;12.13;;;7.27;;
73599;SDS011;61877;48.246;9.220;2023-04-03T14:42:27;8.17;;;4.27;;
73599;SDS011;61877;48.246;9.220;2023-04-03T14:44:54;8.38;;;4.40;;
73599;SDS011;61877;48.246;9.220;2023-04-03T14:47:21;8.97;;;4.20;;
73599;SDS011;61877;48.246;9.220;2023-04-03T14:49:49;8.82;;;4.40;;
73599;SDS011;61877;48.246;9.220;2023-04-03T14:52:16;8.38;;;4.35;;
73599;SDS011;61877;48.246;9.220;2023-04-03T14:54:44;8.00;;;4.10;;
73599;SDS011;61877;48.246;9.220;2023-04-03T14:57:11;9.15;;;4.40;;
73599;SDS011;61877;48.246;9.220;2023-04-03T14:59:38;9.03;;;4.50;;
73599;SDS011;61877;48.246;9.220;2023-04-03T15:02:10;8.57;;;4.32;;
73599;SDS011;61877;48.246;9.220;2023-04-03T15:04:49;9.00;;;4.37;;
73599;SDS011;61877;48.246;9.220;2023-04-03T15:07:15;8.68;;;4.03;;
73599;SDS011;61877;48.246;9.220;2023-04-03T15:09:42;8.80;;;4.57;;